Lake Odessa, Michigan
Current Conditions -  °F | °C
As of 12:13 PM on Thursday 30 Oct 2014 (Local Time) from KY70 Reporting Station
Overcast Overcast  
Wind Chill: 43°   Ceiling: 4400
Heat Index: 47°   Visibility: 10mi
Dew Point: 38°   Wind: 8mph
Humidity: 72%   Direction: 210°SSW
Pressure: 30.1"   Gusts: NA
Location:  42.78°N, 85.14°W
Report Text: KY70 301613Z AUTO 21007KT 10SM OVC044 08/03 A3010 RMK AO2 T00820034
Loading
Personal Weather Stations






























Interactive Weather Map
Tropical Storm Tracking
New forecast layout! Learn more

10-Day Weather Forecast

Advertisements
Track Severe Weather on mobile